East Haven, Vermont
Current Conditions -  °F | °C
As of 3:15 PM on Sunday 23 Nov 2014 (Local Time) from KCDA Reporting Station
Overcast Overcast  
Wind Chill: 41°   Ceiling: 4500
Heat Index: 41°   Visibility: 10mi
Dew Point: 37°   Wind: 0mph
Humidity: 86%   Direction: NA
Pressure: 30.07"   Gusts: NA
Location:  44.66°N, 71.89°W
Report Text: KCDA 232015Z AUTO 00000KT 10SM OVC045 05/03 A3007 RMK AO2 T00500029
Loading
Personal Weather Stations






























Interactive Weather Map New forecast layout! Learn more

10-Day Weather Forecast

Advertisements
Track Severe Weather on mobile